createdAt,value
2023-04-03T00:01:33.448Z,13.50
2023-04-03T00:04:02.114Z,13.60
2023-04-03T00:06:30.567Z,13.50
2023-04-03T00:08:58.905Z,13.50
2023-04-03T00:11:27.307Z,13.50
2023-04-03T00:13:57.043Z,13.50
2023-04-03T00:16:25.372Z,13.50
2023-04-03T00:18:53.676Z,13.40
2023-04-03T00:21:21.994Z,13.40
2023-04-03T00:23:50.332Z,13.40
2023-04-03T00:26:18.698Z,13.40
2023-04-03T00:28:47.062Z,13.40
2023-04-03T00:31:18.403Z,13.30
2023-04-03T00:33:46.905Z,13.30
2023-04-03T00:36:15.663Z,13.30
2023-04-03T00:38:44.042Z,13.30
2023-04-03T00:41:12.422Z,13.30
2023-04-03T00:43:40.821Z,13.30
2023-04-03T00:46:09.188Z,13.30
2023-04-03T00:48:42.181Z,13.30
2023-04-03T00:51:15.126Z,13.30
2023-04-03T00:53:46.936Z,13.30
2023-04-03T00:56:19.345Z,13.30
2023-04-03T00:58:51.902Z,13.30
2023-04-03T01:01:24.992Z,13.30
2023-04-03T01:03:54.890Z,13.30
2023-04-03T01:06:28.392Z,13.30
2023-04-03T01:08:57.408Z,13.20
2023-04-03T01:11:25.901Z,13.20
2023-04-03T01:13:54.762Z,13.20
2023-04-03T01:16:23.166Z,13.20
2023-04-03T01:18:51.668Z,13.20
2023-04-03T01:22:05.444Z,13.10
2023-04-03T01:24:40.086Z,13.10
2023-04-03T01:27:11.759Z,13.10
2023-04-03T01:29:41.163Z,13.00
2023-04-03T01:32:11.017Z,13.00
2023-04-03T01:34:39.372Z,13.00
2023-04-03T01:37:07.661Z,13.00
2023-04-03T01:39:35.963Z,12.90
2023-04-03T01:42:04.828Z,12.90
2023-04-03T01:44:33.142Z,12.90
2023-04-03T01:47:01.501Z,12.90
2023-04-03T01:49:31.212Z,12.90
2023-04-03T01:51:59.528Z,12.80
2023-04-03T01:54:27.905Z,12.80
2023-04-03T01:56:56.299Z,12.80
2023-04-03T01:59:24.634Z,12.80
2023-04-03T02:01:52.898Z,12.80
2023-04-03T02:04:21.284Z,12.70
2023-04-03T02:06:50.985Z,12.70
2023-04-03T02:09:19.349Z,12.70
2023-04-03T02:11:47.598Z,12.70
2023-04-03T02:14:15.906Z,12.70
2023-04-03T02:16:44.355Z,12.60
2023-04-03T02:19:12.886Z,12.70
2023-04-03T02:21:41.155Z,12.70
2023-04-03T02:24:11.104Z,12.60
2023-04-03T02:26:39.478Z,12.60
2023-04-03T02:29:07.818Z,12.60
2023-04-03T02:31:36.134Z,12.60
2023-04-03T02:34:04.475Z,12.70
2023-04-03T02:36:33.017Z,12.70
2023-04-03T02:39:01.482Z,12.60
2023-04-03T02:41:35.902Z,12.70
2023-04-03T02:44:05.382Z,12.60
2023-04-03T02:46:33.876Z,12.60
2023-04-03T02:49:02.368Z,12.60
2023-04-03T02:51:30.707Z,12.60
2023-04-03T02:53:59.013Z,12.60
2023-04-03T02:56:27.879Z,12.50
2023-04-03T02:58:57.814Z,12.50
2023-04-03T03:01:28.151Z,12.50
2023-04-03T03:03:56.716Z,12.50
2023-04-03T03:06:25.526Z,12.50
2023-04-03T03:08:53.907Z,12.50
2023-04-03T03:11:22.305Z,12.50
2023-04-03T03:13:51.149Z,12.50
2023-04-03T03:16:20.904Z,12.50
2023-04-03T03:18:49.430Z,12.40
2023-04-03T03:21:17.736Z,12.40
2023-04-03T03:23:46.097Z,12.50
2023-04-03T03:26:14.516Z,12.40
2023-04-03T03:28:43.219Z,12.40
2023-04-03T03:31:13.285Z,12.40
2023-04-03T03:33:43.106Z,12.40
2023-04-03T03:36:11.681Z,12.40
2023-04-03T03:38:40.068Z,12.30
2023-04-03T03:41:08.453Z,12.30
2023-04-03T03:43:36.889Z,12.30
2023-04-03T03:46:05.204Z,12.30
2023-04-03T03:48:33.584Z,12.30
2023-04-03T03:51:03.297Z,12.30
2023-04-03T03:53:31.696Z,12.30
2023-04-03T03:56:00.026Z,12.30
2023-04-03T03:58:28.571Z,12.30
2023-04-03T04:00:56.992Z,12.20
2023-04-03T04:03:25.413Z,12.20
2023-04-03T04:05:54.145Z,12.20
2023-04-03T04:08:23.829Z,12.20
2023-04-03T04:10:52.234Z,12.20
2023-04-03T04:13:20.831Z,12.20
2023-04-03T04:15:49.147Z,12.20
2023-04-03T04:18:17.412Z,12.20
2023-04-03T04:20:47.404Z,12.20
2023-04-03T04:23:15.869Z,12.20
2023-04-03T04:25:46.880Z,12.30
2023-04-03T04:28:15.467Z,12.30
2023-04-03T04:30:43.763Z,12.30
2023-04-03T04:33:12.391Z,12.40
2023-04-03T04:35:41.136Z,12.40
2023-04-03T04:38:09.851Z,12.40
2023-04-03T04:40:38.800Z,12.50
2023-04-03T04:43:08.593Z,12.60
2023-04-03T04:45:37.140Z,12.60
2023-04-03T04:48:06.251Z,12.70
2023-04-03T04:50:34.568Z,12.70
2023-04-03T04:53:02.866Z,12.80
2023-04-03T04:55:31.130Z,12.90
2023-04-03T04:57:59.473Z,12.90
2023-04-03T05:00:29.258Z,12.90
2023-04-03T05:02:57.610Z,12.90
2023-04-03T05:05:25.964Z,13.00
2023-04-03T05:07:54.328Z,13.00
2023-04-03T05:10:22.706Z,13.10
2023-04-03T05:12:51.127Z,13.10
2023-04-03T05:15:19.479Z,13.20
2023-04-03T05:17:49.436Z,13.20
2023-04-03T05:20:17.973Z,13.20
2023-04-03T05:22:46.271Z,13.30
2023-04-03T05:25:14.522Z,13.30
2023-04-03T05:27:42.783Z,13.40
2023-04-03T05:30:11.698Z,13.40
2023-04-03T05:32:40.023Z,13.40
2023-04-03T05:35:10.881Z,13.50
2023-04-03T05:37:39.755Z,13.50
2023-04-03T05:40:10.552Z,13.60
2023-04-03T05:42:38.925Z,13.50
2023-04-03T05:45:08.274Z,13.60
2023-04-03T05:47:36.635Z,13.60
2023-04-03T05:50:05.500Z,13.60
2023-04-03T05:52:38.498Z,13.70
2023-04-03T05:55:07.847Z,13.80
2023-04-03T05:57:36.302Z,13.70
2023-04-03T06:00:06.573Z,13.80
2023-04-03T06:02:34.931Z,13.90
2023-04-03T06:05:03.336Z,13.90
2023-04-03T06:07:31.770Z,13.90
2023-04-03T06:10:02.399Z,13.90
2023-04-03T06:12:31.069Z,13.90
2023-04-03T06:14:59.578Z,14.00
2023-04-03T06:17:28.238Z,14.00
2023-04-03T06:19:56.907Z,14.00
2023-04-03T06:22:26.728Z,14.00
2023-04-03T06:24:55.055Z,14.10
2023-04-03T06:27:25.136Z,14.10
2023-04-03T06:29:53.416Z,14.10
2023-04-03T06:32:21.701Z,14.10
2023-04-03T06:34:50.057Z,14.10
2023-04-03T06:37:20.918Z,14.10
2023-04-03T06:39:49.731Z,14.20
2023-04-03T06:42:18.100Z,14.10
2023-04-03T06:44:47.832Z,14.20
2023-04-03T06:47:17.094Z,14.20
2023-04-03T06:49:45.528Z,14.10
2023-04-03T06:52:14.274Z,14.20
2023-04-03T06:54:43.337Z,14.20
2023-04-03T06:57:11.703Z,14.20
2023-04-03T06:59:40.192Z,14.20
2023-04-03T07:02:12.633Z,14.30
2023-04-03T07:04:41.149Z,14.40
2023-04-03T07:07:09.722Z,14.40
2023-04-03T07:09:38.070Z,14.50
2023-04-03T07:12:06.538Z,14.60
2023-04-03T07:14:34.792Z,14.70
2023-04-03T07:17:03.087Z,14.80
2023-04-03T07:19:33.092Z,14.90
2023-04-03T07:22:01.384Z,15.00
2023-04-03T07:24:29.820Z,15.10
2023-04-03T07:26:58.290Z,15.20
2023-04-03T07:29:26.599Z,15.30
2023-04-03T07:31:56.436Z,15.40
2023-04-03T07:34:24.861Z,15.50
2023-04-03T07:36:54.523Z,15.60
2023-04-03T07:39:22.823Z,15.70
2023-04-03T07:41:51.070Z,15.70
2023-04-03T07:44:19.449Z,15.70
2023-04-03T07:46:47.845Z,15.80
2023-04-03T07:49:16.369Z,15.80
2023-04-03T07:51:44.722Z,15.80
2023-04-03T07:54:14.464Z,15.90
2023-04-03T07:56:43.843Z,15.90
2023-04-03T07:59:12.569Z,15.90
2023-04-03T08:01:41.110Z,16.00
2023-04-03T08:04:09.596Z,16.00
2023-04-03T08:06:45.719Z,16.00
2023-04-03T08:09:16.972Z,16.00
2023-04-03T08:11:46.113Z,16.00
2023-04-03T08:14:17.812Z,16.00
2023-04-03T08:16:47.451Z,16.10
2023-04-03T08:19:25.640Z,16.20
2023-04-03T08:21:56.425Z,16.20
2023-04-03T08:24:26.387Z,16.30
2023-04-03T08:26:54.727Z,16.30
2023-04-03T08:29:23.341Z,16.40
2023-04-03T08:31:51.946Z,16.50
2023-04-03T08:34:20.757Z,16.50
2023-04-03T08:36:49.278Z,16.60
2023-04-03T08:39:17.597Z,16.70
2023-04-03T08:41:48.851Z,16.80
2023-04-03T08:44:26.160Z,16.80
2023-04-03T08:47:06.491Z,16.90
2023-04-03T08:49:38.330Z,16.90
2023-04-03T08:52:12.164Z,16.90
2023-04-03T08:54:50.406Z,17.00
2023-04-03T08:57:22.559Z,17.10
2023-04-03T08:59:51.003Z,17.10
2023-04-03T09:02:28.733Z,17.20
2023-04-03T09:04:57.980Z,17.30
2023-04-03T09:07:35.585Z,17.30
2023-04-03T09:10:04.386Z,17.40
2023-04-03T09:12:39.460Z,17.50
2023-04-03T09:15:24.834Z,17.60
2023-04-03T09:18:05.111Z,17.70
2023-04-03T09:20:46.208Z,17.80
2023-04-03T09:23:27.066Z,17.90
2023-04-03T09:26:04.816Z,18.00
2023-04-03T09:28:49.358Z,18.10
2023-04-03T09:31:24.482Z,18.20
2023-04-03T09:33:56.513Z,18.20
2023-04-03T09:36:49.281Z,18.30
2023-04-03T09:39:20.633Z,18.40
2023-04-03T09:42:08.240Z,18.40
2023-04-03T09:44:40.633Z,18.50
2023-04-03T09:47:25.670Z,18.60
2023-04-03T09:50:10.523Z,18.60
2023-04-03T09:52:39.471Z,18.60
2023-04-03T09:55:10.332Z,18.60
2023-04-03T09:57:39.434Z,18.70
2023-04-03T10:00:23.973Z,18.70
2023-04-03T10:02:56.040Z,18.70
2023-04-03T10:05:35.020Z,18.70
2023-04-03T10:08:25.773Z,18.80
2023-04-03T10:11:13.555Z,18.80
2023-04-03T10:13:56.275Z,18.90
2023-04-03T10:16:29.519Z,18.90
2023-04-03T10:19:14.313Z,19.00
2023-04-03T10:21:52.772Z,19.00
2023-04-03T10:24:27.460Z,19.10
2023-04-03T10:27:04.387Z,19.10
2023-04-03T10:29:42.088Z,19.20
2023-04-03T10:32:33.857Z,19.30
2023-04-03T10:35:10.358Z,19.30
2023-04-03T10:37:46.918Z,19.40
2023-04-03T10:40:32.273Z,19.40
2023-04-03T10:43:06.954Z,19.50
2023-04-03T10:45:52.203Z,19.50
2023-04-03T10:48:33.686Z,19.60
2023-04-03T10:51:14.230Z,19.70
2023-04-03T10:53:47.026Z,19.70
2023-04-03T10:56:19.955Z,19.70
2023-04-03T10:58:55.419Z,19.70
2023-04-03T11:01:27.238Z,19.70
2023-04-03T11:03:59.665Z,19.80
2023-04-03T11:06:34.185Z,19.80
2023-04-03T11:09:07.796Z,19.80
2023-04-03T11:11:39.800Z,19.90
2023-04-03T11:14:17.370Z,19.80
2023-04-03T11:16:54.367Z,19.80
2023-04-03T11:19:36.370Z,19.80
2023-04-03T11:22:11.686Z,19.80
2023-04-03T11:24:44.176Z,19.90
2023-04-03T11:27:23.763Z,19.90
2023-04-03T11:29:54.553Z,19.90
2023-04-03T11:32:51.673Z,19.90
2023-04-03T11:35:23.601Z,19.90
2023-04-03T11:37:54.405Z,20.10
2023-04-03T11:40:27.737Z,20.10
2023-04-03T11:43:04.961Z,20.20
2023-04-03T11:45:40.381Z,20.30
2023-04-03T11:48:32.864Z,20.20
2023-04-03T11:51:03.591Z,20.20
2023-04-03T11:53:35.671Z,20.20
2023-04-03T11:56:33.124Z,20.20
2023-04-03T11:59:26.778Z,20.20
2023-04-03T12:01:56.193Z,20.20
2023-04-03T12:04:26.591Z,20.20
2023-04-03T12:07:17.057Z,20.10
2023-04-03T12:10:31.572Z,20.10
2023-04-03T12:13:05.143Z,20.00
2023-04-03T12:15:53.826Z,20.00
2023-04-03T12:19:41.299Z,20.00
2023-04-03T12:22:23.145Z,20.10
2023-04-03T12:24:53.314Z,20.00
2023-04-03T12:27:36.643Z,19.90
2023-04-03T12:30:18.544Z,19.90
2023-04-03T12:33:17.694Z,19.80
2023-04-03T12:35:58.933Z,19.80
2023-04-03T12:38:58.803Z,19.80
2023-04-03T12:41:38.529Z,19.70
2023-04-03T12:44:27.202Z,19.80
2023-04-03T12:46:56.206Z,19.70
2023-04-03T12:49:38.422Z,19.80
2023-04-03T12:52:19.001Z,19.70
2023-04-03T12:54:50.197Z,19.70
2023-04-03T12:57:21.027Z,19.70
2023-04-03T12:59:50.217Z,19.60
2023-04-03T13:02:24.883Z,19.70
2023-04-03T13:04:55.842Z,19.60
2023-04-03T13:07:28.399Z,19.50
2023-04-03T13:10:16.224Z,19.40
2023-04-03T13:12:53.657Z,19.40
2023-04-03T13:15:24.188Z,19.40
2023-04-03T13:17:53.746Z,19.40
2023-04-03T13:20:29.849Z,19.30
2023-04-03T13:23:05.340Z,19.30
2023-04-03T13:25:49.544Z,19.30
2023-04-03T13:28:21.246Z,19.30
2023-04-03T13:31:04.002Z,19.20
2023-04-03T13:33:39.565Z,19.10
2023-04-03T13:36:11.329Z,19.10
2023-04-03T13:38:42.446Z,19.10
2023-04-03T13:41:28.398Z,19.10
2023-04-03T13:44:03.338Z,19.10
2023-04-03T13:46:38.947Z,19.10
2023-04-03T13:49:25.630Z,19.10
2023-04-03T13:52:06.398Z,19.10
2023-04-03T13:54:44.270Z,19.00
2023-04-03T13:57:18.862Z,19.00
2023-04-03T13:59:47.800Z,19.00
2023-04-03T14:02:20.017Z,19.00
2023-04-03T14:04:54.267Z,19.00
2023-04-03T14:07:22.611Z,18.90
2023-04-03T14:09:51.095Z,18.90
2023-04-03T14:12:31.422Z,18.80
2023-04-03T14:15:02.087Z,18.80
2023-04-03T14:17:32.247Z,18.70
2023-04-03T14:20:02.051Z,18.70
2023-04-03T14:22:34.638Z,18.70
2023-04-03T14:25:03.866Z,18.60
2023-04-03T14:27:38.945Z,18.60
2023-04-03T14:30:09.702Z,18.60
2023-04-03T14:32:38.253Z,18.60
2023-04-03T14:35:07.740Z,18.50
2023-04-03T14:37:36.549Z,18.40
2023-04-03T14:40:06.690Z,18.40
2023-04-03T14:42:39.702Z,18.40
2023-04-03T14:45:10.707Z,18.40
2023-04-03T14:47:44.788Z,18.30
2023-04-03T14:50:16.855Z,18.30
2023-04-03T14:52:47.608Z,18.30
2023-04-03T14:55:18.342Z,18.20
2023-04-03T14:57:48.401Z,18.20
2023-04-03T15:00:19.093Z,18.20
2023-04-03T15:02:48.968Z,18.10
2023-04-03T15:05:17.987Z,18.10
2023-04-03T15:07:51.025Z,18.00
2023-04-03T15:10:22.939Z,17.90
2023-04-03T15:12:53.127Z,17.80
2023-04-03T15:15:23.415Z,17.80
2023-04-03T15:17:56.011Z,17.80
2023-04-03T15:20:27.740Z,17.80
2023-04-03T15:22:58.189Z,17.70
2023-04-03T15:25:26.947Z,17.60
2023-04-03T15:27:57.636Z,17.70
2023-04-03T15:30:26.318Z,17.60
2023-04-03T15:32:55.342Z,17.70
2023-04-03T15:35:24.304Z,17.60
2023-04-03T15:37:52.623Z,17.50
2023-04-03T15:40:22.228Z,17.60
2023-04-03T15:42:52.367Z,17.60
2023-04-03T15:45:23.434Z,17.50
2023-04-03T15:47:52.186Z,17.50
2023-04-03T15:50:20.644Z,17.50
2023-04-03T15:52:49.301Z,17.40
2023-04-03T15:55:17.635Z,17.40
2023-04-03T15:57:46.009Z,17.40
2023-04-03T16:00:15.645Z,17.30
2023-04-03T16:02:46.167Z,17.30
2023-04-03T16:05:16.488Z,17.30
2023-04-03T16:07:45.510Z,17.30
2023-04-03T16:10:15.580Z,17.30
2023-04-03T16:12:44.206Z,17.30
2023-04-03T16:15:13.615Z,17.20
2023-04-03T16:17:43.113Z,17.20
2023-04-03T16:20:15.279Z,17.20
2023-04-03T16:22:44.592Z,17.20
2023-04-03T16:25:13.824Z,17.10
2023-04-03T16:27:42.426Z,17.20
2023-04-03T16:30:11.936Z,17.10
2023-04-03T16:32:42.376Z,17.10
2023-04-03T16:35:12.628Z,17.10
2023-04-03T16:37:41.794Z,17.00
2023-04-03T16:40:13.120Z,17.00
2023-04-03T16:42:41.613Z,17.00
2023-04-03T16:45:11.135Z,17.00
2023-04-03T16:47:39.709Z,17.00
2023-04-03T16:50:09.218Z,17.00
2023-04-03T16:52:39.145Z,16.90
2023-04-03T16:55:08.671Z,16.90
2023-04-03T16:57:37.043Z,16.80
2023-04-03T17:00:06.467Z,16.80
2023-04-03T17:02:34.877Z,16.90
2023-04-03T17:05:04.690Z,16.80
2023-04-03T17:07:33.192Z,16.80
2023-04-03T17:10:02.888Z,16.80
2023-04-03T17:12:31.660Z,16.80
2023-04-03T17:15:00.002Z,16.80
2023-04-03T17:17:28.430Z,16.80
2023-04-03T17:19:57.727Z,16.70
2023-04-03T17:22:26.509Z,16.80
2023-04-03T17:24:54.865Z,16.70
2023-04-03T17:27:24.743Z,16.70
2023-04-03T17:29:53.062Z,16.70
2023-04-03T17:32:21.605Z,16.60
2023-04-03T17:34:50.019Z,16.60
2023-04-03T17:37:18.526Z,16.60
2023-04-03T17:39:47.654Z,16.60
2023-04-03T17:42:16.146Z,16.50
2023-04-03T17:44:45.990Z,16.50
2023-04-03T17:47:14.284Z,16.50
2023-04-03T17:49:42.693Z,16.50
2023-04-03T17:52:11.109Z,16.50
2023-04-03T17:54:39.718Z,16.50
2023-04-03T17:57:09.022Z,16.50
2023-04-03T17:59:39.261Z,16.40
2023-04-03T18:02:09.014Z,16.50
2023-04-03T18:04:37.378Z,16.40
2023-04-03T18:07:09.657Z,16.40
2023-04-03T18:09:40.992Z,16.40
2023-04-03T18:12:10.693Z,16.30
2023-04-03T18:14:40.091Z,16.20
2023-04-03T18:17:09.813Z,16.20
2023-04-03T18:19:38.834Z,16.20
2023-04-03T18:22:11.128Z,16.10
2023-04-03T18:24:40.067Z,16.10
2023-04-03T18:27:12.204Z,16.00
2023-04-03T18:29:43.700Z,15.90
2023-04-03T18:32:16.023Z,15.90
2023-04-03T18:34:44.293Z,15.80
2023-04-03T18:37:12.745Z,15.80
2023-04-03T18:39:40.988Z,15.70
2023-04-03T18:42:13.465Z,15.70
2023-04-03T18:44:44.409Z,15.70
2023-04-03T18:47:14.471Z,15.60
2023-04-03T18:49:44.225Z,15.60
2023-04-03T18:52:13.229Z,15.50
2023-04-03T18:54:42.917Z,15.40
2023-04-03T18:57:11.270Z,15.40
2023-04-03T18:59:39.660Z,15.40
2023-04-03T19:02:09.256Z,15.40
2023-04-03T19:04:39.263Z,15.30
2023-04-03T19:07:08.709Z,15.30
2023-04-03T19:09:38.823Z,15.20
2023-04-03T19:12:07.369Z,15.20
2023-04-03T19:14:35.753Z,15.20
2023-04-03T19:17:06.828Z,15.20
2023-04-03T19:19:35.073Z,15.10
2023-04-03T19:22:04.766Z,15.10
2023-04-03T19:24:33.112Z,15.00
2023-04-03T19:27:01.461Z,15.00
2023-04-03T19:29:29.765Z,15.00
2023-04-03T19:31:58.081Z,14.90
2023-04-03T19:34:26.629Z,14.90
2023-04-03T19:36:55.453Z,14.80
2023-04-03T19:39:25.258Z,14.70
2023-04-03T19:41:53.708Z,14.70
2023-04-03T19:44:22.051Z,14.60
2023-04-03T19:46:51.361Z,14.60
2023-04-03T19:49:20.664Z,14.50
2023-04-03T19:51:49.138Z,14.40
2023-04-03T19:54:17.534Z,14.30
2023-04-03T19:56:47.658Z,14.30
2023-04-03T19:59:17.457Z,14.20
2023-04-03T20:01:47.152Z,14.20
2023-04-03T20:04:15.737Z,14.10
2023-04-03T20:06:44.038Z,14.00
2023-04-03T20:09:12.337Z,14.00
2023-04-03T20:11:41.373Z,14.00
2023-04-03T20:14:11.042Z,13.90
2023-04-03T20:16:39.639Z,13.90
2023-04-03T20:19:08.035Z,13.90
2023-04-03T20:21:36.518Z,13.80
2023-04-03T20:24:10.030Z,13.80
2023-04-03T20:26:43.929Z,13.70
2023-04-03T20:29:14.775Z,13.60
2023-04-03T20:31:43.426Z,13.60
2023-04-03T20:34:11.943Z,13.50
2023-04-03T20:36:40.419Z,13.30
2023-04-03T20:39:09.186Z,13.20
2023-04-03T20:41:39.518Z,13.10
2023-04-03T20:44:10.651Z,12.90
2023-04-03T20:46:52.213Z,12.80
2023-04-03T20:49:22.833Z,12.60
2023-04-03T20:51:51.808Z,12.50
2023-04-03T20:54:20.178Z,12.40
2023-04-03T20:56:50.135Z,12.30
2023-04-03T20:59:19.194Z,12.20
2023-04-03T21:01:50.043Z,12.10
2023-04-03T21:04:23.440Z,12.00
2023-04-03T21:07:28.858Z,12.00
2023-04-03T21:10:34.143Z,12.00
2023-04-03T21:13:39.381Z,12.00
2023-04-03T21:16:07.355Z,11.80
2023-04-03T21:19:08.835Z,11.70
2023-04-03T21:21:37.641Z,11.60
2023-04-03T21:24:09.951Z,11.60
2023-04-03T21:26:39.824Z,11.50
2023-04-03T21:29:08.821Z,11.40
2023-04-03T21:31:54.065Z,11.40
2023-04-03T21:34:25.999Z,11.30
2023-04-03T21:36:54.636Z,11.20
2023-04-03T21:39:23.659Z,11.20
2023-04-03T21:41:52.676Z,11.10
2023-04-03T21:44:21.196Z,11.10
2023-04-03T21:46:53.864Z,11.10
2023-04-03T21:49:24.143Z,11.10
2023-04-03T21:51:52.781Z,11.00
2023-04-03T21:54:21.246Z,11.00
2023-04-03T21:56:49.697Z,10.90
2023-04-03T21:59:18.377Z,11.00
2023-04-03T22:01:46.953Z,10.90
2023-04-03T22:04:15.733Z,10.90
2023-04-03T22:06:45.910Z,10.80
2023-04-03T22:09:14.300Z,10.80
2023-04-03T22:11:45.695Z,10.80
2023-04-03T22:14:14.010Z,10.70
2023-04-03T22:16:44.051Z,10.70
2023-04-03T22:19:12.472Z,10.70
2023-04-03T22:21:41.133Z,10.70
2023-04-03T22:24:10.851Z,10.60
2023-04-03T22:26:39.534Z,10.50
2023-04-03T22:29:07.849Z,10.50
2023-04-03T22:31:37.070Z,10.40
2023-04-03T22:34:06.019Z,10.40
2023-04-03T22:36:34.431Z,10.40
2023-04-03T22:39:06.650Z,10.40
2023-04-03T22:41:36.902Z,10.30
2023-04-03T22:44:05.292Z,10.30
2023-04-03T22:46:33.534Z,10.30
2023-04-03T22:49:01.805Z,10.30
2023-04-03T22:51:30.136Z,10.30
2023-04-03T22:53:58.443Z,10.30
2023-04-03T22:56:27.663Z,10.30
2023-04-03T22:58:57.445Z,10.30
2023-04-03T23:01:25.874Z,10.30
2023-04-03T23:03:54.260Z,10.30
2023-04-03T23:06:22.645Z,10.40
2023-04-03T23:08:51.022Z,10.30
2023-04-03T23:11:19.414Z,10.30
2023-04-03T23:13:47.754Z,10.30
2023-04-03T23:16:17.590Z,10.30
2023-04-03T23:18:45.879Z,10.30
2023-04-03T23:21:14.245Z,10.30
2023-04-03T23:23:42.501Z,10.30
2023-04-03T23:26:11.175Z,10.30
2023-04-03T23:28:39.561Z,10.30
2023-04-03T23:31:08.209Z,10.40
2023-04-03T23:33:39.462Z,10.30
2023-04-03T23:36:09.419Z,10.30
2023-04-03T23:38:38.145Z,10.30
2023-04-03T23:41:06.626Z,10.20
2023-04-03T23:43:34.994Z,10.20
2023-04-03T23:46:03.364Z,10.20
2023-04-03T23:48:31.760Z,10.20
2023-04-03T23:51:01.463Z,10.30
2023-04-03T23:53:29.812Z,10.30
2023-04-03T23:55:58.358Z,10.30
2023-04-03T23:58:26.608Z,10.30
